Omskiy-107 — UBWE3 — position and weather

sailwx.info

Track history (hours):
 
Tides and Currents Weather Stations Pressure Air Temp Water Temp Dewpoint Dewpoint Depression Visibility Wind Speed Wind Dir Waves Ship Positions

Omskiy-107

Last reported at 2015-Jul-02 21:29 UTC. Time now 2015-Jul-03 06:13 UTC.
Position N 32°60' E 034°09'.

Length 108 m; draft 3.2 m.

Type: Cargo ship. MMSI: 273343220.

Date/timePositionNaut miles runAvg speedWind from/ knotsBaromVisibWave heightAir tempDewpointWater temp
2015-Jul-02 21:29N 32°60' E 034°09'12 8.6
2015-Jul-02 20:04N 33°02' E 033°55'4 8.4
2015-Jul-02 19:33N 33°03' E 033°50'8 8.4
2015-Jul-02 18:34N 33°04' E 033°40'7 7.4
2015-Jul-02 17:33N 33°08' E 033°33'8 7.9
2015-Jul-02 16:32N 33°14' E 033°27'8 7.9
2015-Jul-02 15:33N 33°20' E 033°21'8 7.9
2015-Jul-02 14:34N 33°27' E 033°16'8 8.0
2015-Jul-02 13:32N 33°33' E 033°10'7 7.2
2015-Jul-02 12:33N 33°39' E 033°04'7 7.3
2015-Jul-02 11:33N 33°45' E 032°59'13 6.5
2015-Jul-02 09:33N 33°55' E 032°50'299 8.1
2015-Jun-30 20:32N 36°29' E 027°36'18 8.8
2015-Jun-30 18:32N 36°31' E 027°14'19 7.9
2015-Jun-30 16:10N 36°38' E 026°53'9 9.1
2015-Jun-30 15:10N 36°46' E 026°47'7 8.8
2015-Jun-30 14:23N 36°51' E 026°41'7 8.6
2015-Jun-30 13:32N 36°57' E 026°36'8 7.8
2015-Jun-30 12:33N 37°03' E 026°30'8 7.6
2015-Jun-30 11:30N 37°09' E 026°23'7 7.5
2015-Jun-30 10:33N 37°14' E 026°16'23 7.8
2015-Jun-30 07:33N 37°30' E 025°55'7 7.4
2015-Jun-30 06:33N 37°37' E 025°52'247 7.1
2015-Jun-28 19:29N 40°58' E 028°57'297 6.3
2015-Jun-26 20:19N 43°57' E 034°19'6 7.3
2015-Jun-26 19:26N 44°01' E 034°27'6 7.1
2015-Jun-26 18:34N 44°04' E 034°34'7 6.5
2015-Jun-26 17:34N 44°08' E 034°42'9 6.7
2015-Jun-26 16:17N 44°12' E 034°52'5 6.5
2015-Jun-26 15:34N 44°15' E 034°57'7 6.7
2015-Jun-26 14:34N 44°18' E 035°05'8 6.9
2015-Jun-26 13:27N 44°22' E 035°14'7 7.4
2015-Jun-26 12:33N 44°26' E 035°22'17 7.6
2015-Jun-26 10:23N 44°35' E 035°42'14 7.5
2015-Jun-26 08:33N 44°42' E 035°58'  
Track history (hours):
 
Tides and Currents Weather Stations Pressure Air Temp Water Temp Dewpoint Dewpoint Depression Visibility Wind Speed Wind Dir Waves Ship Positions

Omskiy-107

Last reported at 2015-Jul-02 21:29 UTC. Time now 2015-Jul-03 06:13 UTC.
Position N 32°60' E 034°09'.

Length 108 m; draft 3.2 m.

Type: Cargo ship. MMSI: 273343220.

Date/timePositionNaut miles runAvg speedWind from/ knotsBaromVisibWave heightAir tempDewpointWater temp
2015-Jul-02 21:29N 32°60' E 034°09'12 8.6
2015-Jul-02 20:04N 33°02' E 033°55'4 8.4
2015-Jul-02 19:33N 33°03' E 033°50'8 8.4
2015-Jul-02 18:34N 33°04' E 033°40'7 7.4
2015-Jul-02 17:33N 33°08' E 033°33'8 7.9
2015-Jul-02 16:32N 33°14' E 033°27'8 7.9
2015-Jul-02 15:33N 33°20' E 033°21'8 7.9
2015-Jul-02 14:34N 33°27' E 033°16'8 8.0
2015-Jul-02 13:32N 33°33' E 033°10'7 7.2
2015-Jul-02 12:33N 33°39' E 033°04'7 7.3
2015-Jul-02 11:33N 33°45' E 032°59'13 6.5
2015-Jul-02 09:33N 33°55' E 032°50'299 8.1
2015-Jun-30 20:32N 36°29' E 027°36'18 8.8
2015-Jun-30 18:32N 36°31' E 027°14'19 7.9
2015-Jun-30 16:10N 36°38' E 026°53'9 9.1
2015-Jun-30 15:10N 36°46' E 026°47'7 8.8
2015-Jun-30 14:23N 36°51' E 026°41'7 8.6
2015-Jun-30 13:32N 36°57' E 026°36'8 7.8
2015-Jun-30 12:33N 37°03' E 026°30'8 7.6
2015-Jun-30 11:30N 37°09' E 026°23'7 7.5
2015-Jun-30 10:33N 37°14' E 026°16'23 7.8
2015-Jun-30 07:33N 37°30' E 025°55'7 7.4
2015-Jun-30 06:33N 37°37' E 025°52'247 7.1
2015-Jun-28 19:29N 40°58' E 028°57'297 6.3
2015-Jun-26 20:19N 43°57' E 034°19'6 7.3
2015-Jun-26 19:26N 44°01' E 034°27'6 7.1
2015-Jun-26 18:34N 44°04' E 034°34'7 6.5
2015-Jun-26 17:34N 44°08' E 034°42'9 6.7
2015-Jun-26 16:17N 44°12' E 034°52'5 6.5
2015-Jun-26 15:34N 44°15' E 034°57'7 6.7
2015-Jun-26 14:34N 44°18' E 035°05'8 6.9
2015-Jun-26 13:27N 44°22' E 035°14'7 7.4
2015-Jun-26 12:33N 44°26' E 035°22'17 7.6
2015-Jun-26 10:23N 44°35' E 035°42'14 7.5
2015-Jun-26 08:33N 44°42' E 035°58'  

Dump ship's entire track history